< < Back
Terminal Aerodrome Forecast


Current Version              Previous Versions:   1  2  3  4  5  6  7  8  9  

Terminal Aerodrome Forecast

418
FTUS42 KGSP 241120
TAFAND
TAF
KAND 241120Z 2412/2512 VRB03KT P6SM FEW080
     FM241600 23006KT P6SM SCT250
     FM250100 00000KT P6SM SCT250=

Latest METAR

013
SAUS70 KWBC 241300 RRE
MTRAND
METAR KAND 241256Z AUTO 35003KT 10SM CLR 19/12 A3018 RMK AO2 SLP211
T01940117


USA.gov is the U.S. government's official web portal to all federal, state and local government web resources and services.